createdAt,value
2022-10-21T00:01:56.566Z,5.25
2022-10-21T00:03:58.182Z,7.53
2022-10-21T00:05:59.927Z,5.82
2022-10-21T00:08:01.521Z,8.02
2022-10-21T00:10:05.000Z,6.45
2022-10-21T00:12:06.694Z,6.45
2022-10-21T00:14:08.261Z,6.70
2022-10-21T00:16:13.043Z,9.35
2022-10-21T00:18:14.686Z,5.20
2022-10-21T00:20:16.843Z,5.28
2022-10-21T00:22:18.534Z,6.40
2022-10-21T00:24:20.102Z,6.20
2022-10-21T00:26:21.895Z,5.53
2022-10-21T00:28:23.688Z,7.97
2022-10-21T00:30:25.254Z,5.35
2022-10-21T00:32:26.929Z,6.35
2022-10-21T00:34:30.749Z,6.53
2022-10-21T00:36:32.738Z,6.13
2022-10-21T00:38:35.773Z,6.03
2022-10-21T00:40:38.864Z,7.50
2022-10-21T00:42:44.028Z,6.13
2022-10-21T00:45:06.873Z,6.35
2022-10-21T00:47:15.984Z,6.22
2022-10-21T00:49:41.079Z,4.55
2022-10-21T00:51:45.675Z,6.00
2022-10-21T00:53:50.134Z,5.13
2022-10-21T00:55:58.512Z,6.78
2022-10-21T00:58:03.423Z,6.18
2022-10-21T01:00:06.571Z,5.50
2022-10-21T01:02:08.670Z,6.15
2022-10-21T01:04:10.887Z,5.35
2022-10-21T01:06:13.990Z,6.47
2022-10-21T01:08:18.582Z,6.15
2022-10-21T01:10:20.191Z,4.75
2022-10-21T01:12:46.661Z,6.38
2022-10-21T01:15:25.943Z,5.07
2022-10-21T01:17:47.689Z,7.65
2022-10-21T01:20:01.924Z,5.93
2022-10-21T01:22:08.444Z,6.50
2022-10-21T01:24:38.763Z,7.10
2022-10-21T01:26:55.524Z,5.50
2022-10-21T01:29:25.225Z,5.28
2022-10-21T01:31:40.135Z,7.95
2022-10-21T01:33:47.800Z,5.60
2022-10-21T01:36:19.753Z,5.90
2022-10-21T01:38:49.220Z,5.03
2022-10-21T01:41:18.798Z,6.13
2022-10-21T01:43:48.025Z,6.78
2022-10-21T01:45:56.418Z,5.75
2022-10-21T01:48:21.824Z,5.53
2022-10-21T01:50:28.336Z,4.75
2022-10-21T01:52:30.742Z,6.35
2022-10-21T01:54:45.122Z,4.85
2022-10-21T01:56:48.339Z,6.22
2022-10-21T01:58:51.898Z,5.53
2022-10-21T02:00:57.387Z,6.07
2022-10-21T02:03:02.300Z,6.60
2022-10-21T02:05:12.468Z,5.53
2022-10-21T02:07:14.148Z,6.25
2022-10-21T02:09:15.784Z,4.85
2022-10-21T02:11:19.146Z,6.53
2022-10-21T02:13:26.779Z,7.25
2022-10-21T02:15:30.063Z,6.68
2022-10-21T02:17:31.803Z,4.88
2022-10-21T02:19:33.547Z,6.57
2022-10-21T02:21:36.380Z,6.05
2022-10-21T02:23:50.794Z,6.38
2022-10-21T02:25:52.544Z,5.93
2022-10-21T02:27:54.929Z,5.95
2022-10-21T02:29:59.726Z,6.90
2022-10-21T02:32:24.384Z,5.03
2022-10-21T02:34:43.531Z,5.85
2022-10-21T02:37:14.717Z,6.18
2022-10-21T02:39:26.723Z,5.65
2022-10-21T02:41:30.681Z,5.22
2022-10-21T02:43:38.664Z,5.35
2022-10-21T02:45:40.636Z,5.03
2022-10-21T02:47:43.796Z,4.65
2022-10-21T02:49:46.498Z,5.13
2022-10-21T02:51:48.433Z,6.80
2022-10-21T02:53:50.084Z,5.28
2022-10-21T02:55:51.804Z,5.15
2022-10-21T02:57:53.496Z,5.95
2022-10-21T02:59:54.974Z,4.97
2022-10-21T03:01:56.796Z,6.38
2022-10-21T03:03:58.373Z,6.32
2022-10-21T03:05:59.883Z,8.27
2022-10-21T03:08:01.480Z,6.70
2022-10-21T03:10:03.148Z,5.40
2022-10-21T03:12:04.962Z,4.82
2022-10-21T03:14:06.467Z,5.82
2022-10-21T03:16:09.613Z,8.10
2022-10-21T03:18:11.439Z,5.28
2022-10-21T03:20:13.295Z,6.25
2022-10-21T03:22:14.883Z,5.18
2022-10-21T03:24:27.828Z,5.82
2022-10-21T03:26:30.244Z,5.18
2022-10-21T03:28:31.905Z,5.72
2022-10-21T03:30:33.650Z,5.72
2022-10-21T03:32:36.084Z,6.32
2022-10-21T03:34:37.887Z,4.97
2022-10-21T03:36:39.407Z,6.95
2022-10-21T03:38:41.171Z,5.78
2022-10-21T03:40:42.700Z,5.38
2022-10-21T03:42:44.387Z,6.88
2022-10-21T03:44:45.982Z,6.07
2022-10-21T03:46:47.629Z,7.15
2022-10-21T03:48:49.443Z,5.25
2022-10-21T03:50:51.033Z,6.28
2022-10-21T03:52:52.851Z,5.22
2022-10-21T03:54:54.616Z,4.75
2022-10-21T03:56:56.306Z,4.72
2022-10-21T03:58:58.884Z,7.05
2022-10-21T04:01:00.588Z,6.25
2022-10-21T04:03:02.465Z,6.55
2022-10-21T04:05:04.553Z,4.90
2022-10-21T04:07:06.366Z,7.72
2022-10-21T04:09:08.007Z,5.43
2022-10-21T04:11:09.593Z,5.95
2022-10-21T04:13:13.802Z,4.93
2022-10-21T04:15:15.313Z,6.57
2022-10-21T04:17:17.084Z,5.78
2022-10-21T04:19:19.963Z,6.53
2022-10-21T04:23:28.021Z,6.30
2022-10-21T04:25:29.522Z,9.60
2022-10-21T04:27:31.345Z,5.95
2022-10-21T04:29:32.996Z,5.30
2022-10-21T04:31:34.847Z,5.30
2022-10-21T04:33:36.803Z,6.93
2022-10-21T04:35:41.150Z,7.65
2022-10-21T04:37:43.226Z,5.72
2022-10-21T04:39:44.909Z,8.65
2022-10-21T04:41:47.932Z,7.45
2022-10-21T04:43:49.608Z,5.70
2022-10-21T04:45:51.299Z,7.00
2022-10-21T04:47:53.070Z,7.90
2022-10-21T04:49:54.693Z,7.15
2022-10-21T04:52:07.946Z,7.47
2022-10-21T04:54:16.444Z,7.07
2022-10-21T04:56:18.009Z,7.70
2022-10-21T04:58:22.045Z,6.85
2022-10-21T05:00:23.970Z,9.43
2022-10-21T05:02:25.860Z,8.02
2022-10-21T05:04:28.619Z,8.20
2022-10-21T05:06:30.594Z,8.55
2022-10-21T05:08:32.660Z,7.30
2022-10-21T05:10:34.381Z,6.47
2022-10-21T05:12:37.855Z,6.95
2022-10-21T05:14:39.627Z,6.45
2022-10-21T05:16:41.315Z,6.75
2022-10-21T05:18:43.031Z,6.70
2022-10-21T05:20:51.937Z,6.25
2022-10-21T05:22:54.307Z,6.22
2022-10-21T05:24:55.986Z,7.40
2022-10-21T05:26:57.614Z,8.07
2022-10-21T05:28:59.759Z,7.47
2022-10-21T05:31:01.341Z,7.20
2022-10-21T05:33:03.127Z,7.95
2022-10-21T05:35:05.031Z,7.18
2022-10-21T05:37:12.795Z,6.30
2022-10-21T05:39:14.613Z,7.45
2022-10-21T05:41:16.684Z,8.95
2022-10-21T05:43:18.637Z,7.57
2022-10-21T05:45:21.277Z,6.80
2022-10-21T05:47:24.208Z,9.38
2022-10-21T05:49:36.374Z,6.97
2022-10-21T05:51:38.151Z,10.20
2022-10-21T05:53:39.978Z,8.95
2022-10-21T05:55:41.826Z,6.30
2022-10-21T05:57:44.252Z,6.10
2022-10-21T05:59:46.006Z,6.82
2022-10-21T06:01:55.121Z,6.85
2022-10-21T06:03:56.748Z,6.80
2022-10-21T06:06:10.889Z,7.05
2022-10-21T06:08:12.507Z,6.80
2022-10-21T06:10:16.623Z,7.65
2022-10-21T06:12:18.162Z,6.68
2022-10-21T06:14:23.034Z,8.55
2022-10-21T06:16:24.623Z,7.75
2022-10-21T06:18:27.014Z,8.40
2022-10-21T06:20:31.743Z,8.43
2022-10-21T06:22:33.332Z,8.02
2022-10-21T06:24:39.821Z,9.50
2022-10-21T06:26:44.306Z,11.07
2022-10-21T06:28:47.117Z,9.93
2022-10-21T06:30:52.102Z,8.65
2022-10-21T06:32:53.621Z,8.25
2022-10-21T06:34:59.374Z,8.32
2022-10-21T06:37:07.104Z,7.28
2022-10-21T06:39:09.052Z,7.10
2022-10-21T06:41:17.372Z,6.78
2022-10-21T06:45:28.090Z,10.32
2022-10-21T06:47:30.142Z,7.88
2022-10-21T06:49:32.068Z,6.70
2022-10-21T06:51:36.629Z,6.28
2022-10-21T06:53:39.365Z,6.22
2022-10-21T06:55:44.498Z,6.07
2022-10-21T06:57:46.084Z,6.43
2022-10-21T06:59:48.115Z,5.45
2022-10-21T07:01:59.622Z,5.25
2022-10-21T07:04:03.513Z,7.25
2022-10-21T07:06:11.396Z,5.93
2022-10-21T07:08:19.805Z,5.90
2022-10-21T07:10:24.012Z,8.43
2022-10-21T07:12:27.017Z,6.78
2022-10-21T07:14:31.222Z,5.00
2022-10-21T07:16:36.607Z,5.63
2022-10-21T07:18:42.636Z,8.20
2022-10-21T07:20:44.471Z,6.60
2022-10-21T07:22:46.058Z,6.53
2022-10-21T07:24:49.492Z,5.93
2022-10-21T07:26:51.782Z,6.05
2022-10-21T07:28:54.993Z,5.65
2022-10-21T07:31:06.698Z,7.43
2022-10-21T07:33:08.883Z,5.57
2022-10-21T07:35:15.532Z,6.90
2022-10-21T07:37:17.081Z,5.18
2022-10-21T07:39:22.645Z,6.28
2022-10-21T07:41:30.950Z,7.68
2022-10-21T07:43:49.860Z,5.30
2022-10-21T07:45:53.734Z,5.22
2022-10-21T07:47:55.370Z,5.10
2022-10-21T07:49:57.753Z,5.45
2022-10-21T07:51:59.750Z,6.07
2022-10-21T07:54:02.087Z,5.75
2022-10-21T07:56:26.121Z,9.18
2022-10-21T07:58:28.122Z,6.20
2022-10-21T08:00:29.750Z,7.82
2022-10-21T08:02:33.240Z,5.60
2022-10-21T08:04:34.952Z,6.32
2022-10-21T08:06:36.862Z,5.30
2022-10-21T08:08:41.323Z,6.68
2022-10-21T08:10:52.785Z,5.03
2022-10-21T08:12:54.830Z,5.93
2022-10-21T08:14:56.438Z,6.50
2022-10-21T08:17:00.470Z,7.13
2022-10-21T08:19:32.258Z,5.63
2022-10-21T08:21:40.114Z,5.60
2022-10-21T08:23:43.722Z,4.82
2022-10-21T08:25:51.552Z,6.38
2022-10-21T08:27:53.155Z,6.95
2022-10-21T08:30:09.787Z,6.75
2022-10-21T08:32:12.693Z,5.10
2022-10-21T08:34:17.070Z,5.97
2022-10-21T08:36:21.904Z,5.30
2022-10-21T08:38:23.669Z,5.53
2022-10-21T08:40:26.194Z,4.70
2022-10-21T08:42:37.573Z,5.97
2022-10-21T08:44:44.764Z,5.47
2022-10-21T08:49:42.250Z,6.97
2022-10-21T08:51:54.748Z,6.45
2022-10-21T08:54:01.560Z,6.43
2022-10-21T08:56:15.664Z,7.70
2022-10-21T08:58:26.035Z,7.93
2022-10-21T09:00:54.259Z,7.20
2022-10-21T09:03:15.929Z,7.50
2022-10-21T09:05:40.756Z,5.15
2022-10-21T09:07:56.514Z,7.28
2022-10-21T09:10:16.172Z,6.85
2022-10-21T09:12:35.695Z,6.63
2022-10-21T09:14:57.270Z,5.85
2022-10-21T09:17:26.857Z,5.10
2022-10-21T09:19:50.350Z,7.38
2022-10-21T09:22:34.698Z,6.53
2022-10-21T09:24:46.317Z,7.00
2022-10-21T09:26:50.978Z,7.90
2022-10-21T09:28:54.073Z,7.80
2022-10-21T09:30:58.654Z,5.20
2022-10-21T09:33:02.356Z,5.22
2022-10-21T09:35:16.634Z,7.45
2022-10-21T09:37:43.467Z,5.28
2022-10-21T09:39:49.346Z,5.53
2022-10-21T09:41:59.346Z,6.60
2022-10-21T09:44:06.955Z,5.65
2022-10-21T09:46:13.086Z,7.35
2022-10-21T09:48:19.473Z,5.55
2022-10-21T09:50:21.395Z,7.88
2022-10-21T09:52:35.113Z,6.75
2022-10-21T09:54:40.370Z,6.15
2022-10-21T09:56:51.629Z,6.32
2022-10-21T09:59:17.762Z,6.50
2022-10-21T10:01:24.196Z,7.78
2022-10-21T10:03:46.714Z,5.45
2022-10-21T10:05:56.229Z,5.55
2022-10-21T10:07:57.927Z,7.80
2022-10-21T10:10:32.965Z,5.60
2022-10-21T10:12:47.854Z,6.53
2022-10-21T10:14:49.598Z,6.18
2022-10-21T10:16:55.641Z,5.18
2022-10-21T10:19:24.549Z,6.47
2022-10-21T10:21:26.425Z,4.82
2022-10-21T10:23:27.926Z,5.90
2022-10-21T10:25:34.881Z,6.13
2022-10-21T10:27:38.710Z,4.80
2022-10-21T10:29:45.248Z,6.03
2022-10-21T10:31:54.499Z,6.03
2022-10-21T10:34:05.448Z,5.60
2022-10-21T10:36:09.674Z,4.95
2022-10-21T10:38:22.070Z,5.82
2022-10-21T10:40:28.906Z,8.02
2022-10-21T10:42:35.657Z,5.78
2022-10-21T10:44:48.124Z,5.90
2022-10-21T10:46:55.846Z,7.07
2022-10-21T10:49:09.841Z,8.95
2022-10-21T10:51:32.569Z,5.68
2022-10-21T10:53:36.771Z,5.72
2022-10-21T10:55:43.995Z,8.02
2022-10-21T10:58:06.210Z,9.70
2022-10-21T11:00:17.007Z,9.13
2022-10-21T11:02:31.920Z,5.72
2022-10-21T11:05:16.806Z,5.35
2022-10-21T11:07:45.139Z,8.63
2022-10-21T11:09:48.595Z,9.73
2022-10-21T11:11:54.877Z,7.55
2022-10-21T11:14:02.012Z,7.45
2022-10-21T11:16:45.130Z,6.63
2022-10-21T11:19:19.105Z,6.22
2022-10-21T11:21:23.622Z,7.20
2022-10-21T11:23:37.284Z,7.70
2022-10-21T11:25:46.850Z,7.43
2022-10-21T11:28:14.534Z,6.82
2022-10-21T11:30:22.139Z,6.00
2022-10-21T11:32:27.694Z,7.85
2022-10-21T11:34:50.194Z,8.70
2022-10-21T11:37:30.204Z,8.50
2022-10-21T11:39:43.038Z,8.55
2022-10-21T11:41:57.399Z,7.20
2022-10-21T11:44:26.083Z,6.43
2022-10-21T11:46:40.027Z,7.25
2022-10-21T11:49:06.894Z,8.98
2022-10-21T11:51:27.145Z,9.93
2022-10-21T11:53:56.012Z,7.93
2022-10-21T11:56:07.656Z,7.53
2022-10-21T11:58:41.423Z,6.15
2022-10-21T12:00:56.586Z,7.25
2022-10-21T12:03:21.275Z,6.90
2022-10-21T12:05:32.670Z,6.68
2022-10-21T12:07:55.797Z,7.75
2022-10-21T12:10:10.755Z,7.60
2022-10-21T12:12:21.465Z,6.50
2022-10-21T12:14:31.780Z,7.38
2022-10-21T12:16:34.883Z,7.30
2022-10-21T12:18:55.653Z,6.47
2022-10-21T12:21:03.253Z,7.72
2022-10-21T12:23:06.670Z,8.07
2022-10-21T12:25:17.126Z,9.70
2022-10-21T12:27:45.094Z,8.90
2022-10-21T12:30:04.638Z,8.15
2022-10-21T12:32:38.993Z,9.50
2022-10-21T12:34:40.706Z,7.75
2022-10-21T12:36:54.469Z,8.55
2022-10-21T12:38:58.904Z,9.05
2022-10-21T12:41:23.859Z,6.43
2022-10-21T12:43:28.632Z,5.78
2022-10-21T12:45:33.515Z,5.57
2022-10-21T12:47:48.103Z,5.32
2022-10-21T12:50:09.754Z,6.15
2022-10-21T12:52:15.768Z,6.25
2022-10-21T12:54:24.218Z,6.38
2022-10-21T12:56:59.732Z,5.07
2022-10-21T12:59:06.292Z,5.75
2022-10-21T13:01:52.531Z,6.43
2022-10-21T13:03:55.812Z,5.78
2022-10-21T13:06:02.154Z,6.22
2022-10-21T13:08:27.173Z,7.22
2022-10-21T13:10:28.786Z,5.55
2022-10-21T13:12:31.983Z,6.28
2022-10-21T13:14:39.993Z,5.32
2022-10-21T13:16:41.777Z,5.32
2022-10-21T13:18:56.072Z,5.38
2022-10-21T13:21:01.142Z,4.47
2022-10-21T13:23:32.691Z,6.00
2022-10-21T13:25:36.209Z,4.80
2022-10-21T13:27:39.317Z,6.38
2022-10-21T13:29:54.389Z,6.85
2022-10-21T13:32:13.826Z,5.25
2022-10-21T13:34:32.748Z,4.38
2022-10-21T13:36:39.115Z,6.53
2022-10-21T13:38:53.053Z,7.40
2022-10-21T13:40:59.274Z,4.15
2022-10-21T13:43:05.150Z,5.95
2022-10-21T13:45:46.642Z,5.97
2022-10-21T13:48:03.571Z,7.47
2022-10-21T13:50:32.614Z,8.63
2022-10-21T13:52:34.183Z,7.97
2022-10-21T13:54:35.806Z,8.88
2022-10-21T13:56:40.291Z,6.20
2022-10-21T13:58:43.826Z,5.75
2022-10-21T14:00:45.531Z,6.03
2022-10-21T14:02:51.717Z,5.38
2022-10-21T14:04:53.443Z,5.88
2022-10-21T14:06:59.278Z,6.43
2022-10-21T14:09:08.183Z,5.95
2022-10-21T14:11:18.095Z,5.85
2022-10-21T14:13:25.343Z,5.35
2022-10-21T14:15:39.594Z,6.70
2022-10-21T14:17:48.546Z,5.28
2022-10-21T14:20:15.524Z,6.65
2022-10-21T14:22:22.615Z,6.28
2022-10-21T14:24:42.888Z,5.18
2022-10-21T14:26:50.682Z,5.95
2022-10-21T14:28:52.924Z,4.60
2022-10-21T14:30:55.067Z,6.45
2022-10-21T14:32:59.408Z,4.38
2022-10-21T14:35:27.766Z,5.28
2022-10-21T14:37:55.296Z,5.03
2022-10-21T14:40:26.440Z,5.75
2022-10-21T14:42:32.765Z,5.30
2022-10-21T14:44:34.802Z,4.90
2022-10-21T14:47:05.250Z,4.95
2022-10-21T14:49:08.024Z,7.05
2022-10-21T14:51:15.259Z,5.28
2022-10-21T14:53:27.071Z,6.40
2022-10-21T14:55:30.131Z,6.50
2022-10-21T14:57:32.337Z,7.90
2022-10-21T14:59:41.696Z,9.30
2022-10-21T15:01:44.081Z,6.90
2022-10-21T15:03:49.629Z,7.60
2022-10-21T15:05:51.119Z,9.95
2022-10-21T15:08:16.285Z,7.38
2022-10-21T15:10:20.116Z,9.55
2022-10-21T15:12:21.633Z,8.73
2022-10-21T15:14:29.027Z,9.55
2022-10-21T15:16:31.919Z,10.82
2022-10-21T15:18:43.097Z,7.75
2022-10-21T15:21:05.759Z,7.22
2022-10-21T15:23:19.960Z,7.95
2022-10-21T15:25:23.981Z,8.55
2022-10-21T15:27:37.056Z,5.90
2022-10-21T15:29:44.938Z,8.23
2022-10-21T15:31:46.862Z,6.47
2022-10-21T15:33:50.130Z,5.82
2022-10-21T15:36:09.475Z,5.90
2022-10-21T15:38:11.227Z,6.40
2022-10-21T15:40:12.985Z,6.68
2022-10-21T15:42:22.319Z,7.50
2022-10-21T15:44:29.807Z,4.75
2022-10-21T15:46:45.756Z,5.97
2022-10-21T15:48:55.632Z,4.45
2022-10-21T15:51:01.512Z,4.70
2022-10-21T15:53:03.616Z,5.93
2022-10-21T15:55:05.702Z,4.97
2022-10-21T15:57:20.170Z,4.82
2022-10-21T15:59:28.891Z,3.72
2022-10-21T16:01:30.559Z,4.32
2022-10-21T16:03:32.178Z,6.15
2022-10-21T16:05:33.867Z,6.88
2022-10-21T16:07:36.951Z,6.53
2022-10-21T16:09:44.374Z,6.63
2022-10-21T16:11:59.099Z,5.35
2022-10-21T16:14:04.475Z,4.63
2022-10-21T16:16:24.687Z,7.03
2022-10-21T16:18:26.551Z,5.85
2022-10-21T16:20:33.625Z,6.07
2022-10-21T16:22:35.171Z,4.72
2022-10-21T16:24:36.834Z,4.40
2022-10-21T16:26:49.337Z,4.68
2022-10-21T16:28:56.752Z,5.03
2022-10-21T16:30:59.234Z,5.22
2022-10-21T16:33:01.101Z,5.20
2022-10-21T16:35:02.822Z,5.00
2022-10-21T16:37:18.172Z,4.85
2022-10-21T16:39:24.234Z,6.93
2022-10-21T16:41:28.634Z,6.65
2022-10-21T16:43:30.329Z,7.72
2022-10-21T16:45:32.870Z,5.85
2022-10-21T16:47:34.536Z,7.70
2022-10-21T16:49:35.934Z,9.35
2022-10-21T16:51:38.728Z,9.55
2022-10-21T16:53:40.674Z,12.45
2022-10-21T16:55:42.278Z,9.65
2022-10-21T16:57:44.360Z,11.50
2022-10-21T16:59:45.886Z,11.40
2022-10-21T17:01:47.604Z,10.10
2022-10-21T17:03:52.125Z,9.55
2022-10-21T17:05:53.774Z,11.57
2022-10-21T17:07:55.253Z,9.48
2022-10-21T17:09:56.977Z,10.85
2022-10-21T17:11:58.527Z,8.68
2022-10-21T17:14:01.955Z,8.15
2022-10-21T17:16:04.074Z,9.95
2022-10-21T17:18:05.653Z,6.28
2022-10-21T17:20:07.783Z,7.30
2022-10-21T17:22:19.432Z,7.68
2022-10-21T17:24:21.188Z,5.80
2022-10-21T17:26:23.565Z,8.65
2022-10-21T17:28:25.402Z,6.18
2022-10-21T17:30:27.104Z,5.97
2022-10-21T17:32:28.828Z,5.60
2022-10-21T17:34:33.233Z,4.97
2022-10-21T17:36:39.687Z,8.63
2022-10-21T17:38:42.345Z,5.50
2022-10-21T17:40:43.988Z,5.25
2022-10-21T17:42:46.407Z,5.40
2022-10-21T17:44:48.068Z,5.68
2022-10-21T17:46:54.406Z,6.25
2022-10-21T17:48:57.922Z,6.35
2022-10-21T17:51:03.283Z,5.13
2022-10-21T17:53:04.865Z,4.68
2022-10-21T17:55:07.715Z,8.20
2022-10-21T17:57:11.396Z,4.78
2022-10-21T17:59:13.202Z,5.22
2022-10-21T18:01:15.077Z,7.82
2022-10-21T18:03:18.135Z,8.63
2022-10-21T18:05:20.044Z,7.45
2022-10-21T18:07:22.534Z,7.20
2022-10-21T18:09:24.340Z,9.57
2022-10-21T18:11:26.229Z,12.10
2022-10-21T18:13:30.640Z,12.23
2022-10-21T18:15:33.734Z,13.38
2022-10-21T18:17:37.145Z,14.25
2022-10-21T18:19:39.017Z,13.48
2022-10-21T18:21:40.576Z,12.50
2022-10-21T18:23:43.755Z,13.38
2022-10-21T18:25:45.554Z,14.65
2022-10-21T18:27:47.474Z,12.27
2022-10-21T18:29:49.266Z,12.95
2022-10-21T18:31:51.116Z,13.93
2022-10-21T18:33:54.666Z,13.75
2022-10-21T18:35:56.646Z,14.02
2022-10-21T18:37:58.590Z,12.65
2022-10-21T18:40:00.253Z,12.00
2022-10-21T18:42:01.782Z,11.48
2022-10-21T18:44:08.137Z,12.77
2022-10-21T18:46:10.026Z,13.27
2022-10-21T18:48:11.569Z,13.35
2022-10-21T18:50:14.844Z,14.07
2022-10-21T18:52:16.405Z,14.60
2022-10-21T18:54:18.017Z,15.00
2022-10-21T18:56:22.446Z,11.57
2022-10-21T18:58:24.053Z,13.00
2022-10-21T19:00:25.747Z,11.88
2022-10-21T19:02:27.614Z,11.63
2022-10-21T19:04:29.473Z,13.88
2022-10-21T19:06:37.193Z,15.02
2022-10-21T19:08:39.127Z,13.15
2022-10-21T19:10:42.934Z,13.15
2022-10-21T19:12:44.526Z,12.90
2022-10-21T19:14:47.922Z,12.45
2022-10-21T19:16:49.855Z,11.48
2022-10-21T19:18:51.998Z,9.82
2022-10-21T19:20:53.683Z,9.82
2022-10-21T19:22:56.026Z,9.88
2022-10-21T19:24:57.752Z,8.75
2022-10-21T19:26:59.616Z,9.95
2022-10-21T19:29:08.221Z,9.75
2022-10-21T19:31:11.694Z,8.23
2022-10-21T19:33:13.245Z,8.13
2022-10-21T19:35:15.246Z,7.22
2022-10-21T19:37:16.962Z,6.55
2022-10-21T19:39:19.211Z,7.15
2022-10-21T19:41:22.569Z,7.95
2022-10-21T19:43:25.909Z,7.00
2022-10-21T19:45:27.819Z,7.57
2022-10-21T19:47:31.139Z,5.43
2022-10-21T19:49:33.029Z,6.45
2022-10-21T19:51:35.761Z,5.60
2022-10-21T19:53:37.283Z,5.30
2022-10-21T19:55:38.954Z,5.05
2022-10-21T19:57:41.873Z,5.22
2022-10-21T19:59:43.633Z,5.38
2022-10-21T20:01:45.230Z,5.60
2022-10-21T20:03:49.129Z,8.57
2022-10-21T20:05:50.825Z,7.78
2022-10-21T20:07:52.286Z,8.57
2022-10-21T20:09:53.898Z,6.75
2022-10-21T20:11:55.944Z,9.38
2022-10-21T20:13:58.076Z,7.95
2022-10-21T20:16:00.183Z,11.32
2022-10-21T20:18:01.707Z,11.02
2022-10-21T20:20:04.038Z,8.35
2022-10-21T20:22:05.684Z,8.75
2022-10-21T20:24:07.309Z,9.45
2022-10-21T20:26:08.974Z,10.43
2022-10-21T20:28:10.813Z,8.02
2022-10-21T20:30:12.307Z,10.40
2022-10-21T20:32:13.969Z,8.18
2022-10-21T20:34:15.692Z,8.63
2022-10-21T20:36:29.891Z,8.93
2022-10-21T20:38:32.251Z,6.82
2022-10-21T20:40:34.223Z,8.18
2022-10-21T20:42:36.021Z,7.88
2022-10-21T20:44:37.741Z,8.05
2022-10-21T20:46:39.405Z,7.60
2022-10-21T20:48:43.628Z,6.68
2022-10-21T20:50:45.233Z,7.78
2022-10-21T20:52:47.026Z,6.68
2022-10-21T20:54:51.691Z,8.30
2022-10-21T20:56:53.507Z,6.10
2022-10-21T20:58:55.864Z,7.68
2022-10-21T21:00:57.510Z,7.43
2022-10-21T21:02:59.157Z,8.18
2022-10-21T21:05:00.875Z,6.60
2022-10-21T21:07:02.485Z,7.43
2022-10-21T21:11:25.808Z,5.45
2022-10-21T21:13:27.615Z,8.23
2022-10-21T21:15:29.274Z,5.35
2022-10-21T21:17:30.830Z,4.85
2022-10-21T21:19:32.708Z,6.70
2022-10-21T21:21:36.377Z,5.25
2022-10-21T21:23:38.631Z,5.88
2022-10-21T21:25:40.234Z,4.85
2022-10-21T21:27:41.852Z,5.82
2022-10-21T21:29:43.377Z,5.32
2022-10-21T21:31:44.983Z,5.50
2022-10-21T21:33:46.975Z,5.15
2022-10-21T21:35:48.620Z,7.57
2022-10-21T21:37:50.471Z,6.47
2022-10-21T21:39:52.330Z,10.73
2022-10-21T21:41:54.053Z,12.50
2022-10-21T21:43:56.853Z,11.73
2022-10-21T21:46:00.845Z,9.18
2022-10-21T21:48:02.354Z,9.55
2022-10-21T21:50:04.094Z,7.30
2022-10-21T21:52:05.848Z,6.20
2022-10-21T21:54:10.314Z,9.98
2022-10-21T21:56:12.472Z,10.75
2022-10-21T21:58:14.119Z,13.63
2022-10-21T22:00:15.883Z,12.60
2022-10-21T22:02:17.654Z,14.82
2022-10-21T22:04:19.346Z,13.23
2022-10-21T22:06:23.580Z,13.00
2022-10-21T22:08:25.142Z,10.70
2022-10-21T22:10:27.256Z,10.70
2022-10-21T22:12:29.313Z,8.23
2022-10-21T22:14:30.937Z,8.52
2022-10-21T22:16:32.699Z,9.43
2022-10-21T22:18:35.090Z,10.02
2022-10-21T22:20:40.174Z,8.88
2022-10-21T22:22:42.014Z,7.85
2022-10-21T22:24:43.648Z,7.32
2022-10-21T22:26:45.341Z,9.57
2022-10-21T22:28:47.318Z,9.73
2022-10-21T22:31:03.805Z,14.93
2022-10-21T22:33:05.391Z,24.75
2022-10-21T22:35:11.113Z,27.23
2022-10-21T22:37:12.917Z,23.98
2022-10-21T22:39:14.515Z,20.35
2022-10-21T22:41:16.103Z,18.67
2022-10-21T22:43:17.663Z,14.43
2022-10-21T22:45:19.310Z,11.77
2022-10-21T22:47:23.438Z,9.73
2022-10-21T22:49:25.012Z,9.32
2022-10-21T22:51:26.771Z,7.90
2022-10-21T22:53:29.067Z,7.80
2022-10-21T22:55:30.602Z,7.38
2022-10-21T22:57:32.246Z,8.38
2022-10-21T22:59:33.831Z,5.68
2022-10-21T23:01:35.537Z,6.50
2022-10-21T23:03:37.317Z,5.75
2022-10-21T23:05:38.917Z,5.95
2022-10-21T23:07:41.020Z,5.78
2022-10-21T23:09:42.746Z,6.55
2022-10-21T23:11:44.347Z,5.07
2022-10-21T23:13:56.361Z,5.13
2022-10-21T23:16:05.270Z,6.82
2022-10-21T23:18:06.734Z,4.97
2022-10-21T23:20:08.844Z,4.80
2022-10-21T23:22:11.205Z,5.30
2022-10-21T23:24:13.125Z,5.70
2022-10-21T23:26:14.751Z,6.40
2022-10-21T23:30:25.679Z,5.28
2022-10-21T23:32:27.343Z,4.38
2022-10-21T23:34:29.230Z,5.30
2022-10-21T23:36:30.910Z,4.47
2022-10-21T23:38:32.607Z,7.43
2022-10-21T23:40:34.259Z,4.80
2022-10-21T23:42:40.313Z,4.30
2022-10-21T23:44:44.508Z,6.18
2022-10-21T23:46:46.129Z,5.22
2022-10-21T23:48:48.434Z,5.35
2022-10-21T23:50:50.050Z,6.63
2022-10-21T23:52:51.656Z,4.55
2022-10-21T23:54:53.177Z,5.10
2022-10-21T23:56:54.727Z,5.07
2022-10-21T23:58:56.496Z,5.72
